createdAt,value
2019-05-12T00:01:11.702Z,6.00
2019-05-12T00:02:48.406Z,5.62
2019-05-12T00:04:22.438Z,5.37
2019-05-12T00:05:57.879Z,5.85
2019-05-12T00:07:32.617Z,5.75
2019-05-12T00:09:08.345Z,5.25
2019-05-12T00:10:43.191Z,5.05
2019-05-12T00:12:18.402Z,4.90
2019-05-12T00:13:53.241Z,4.62
2019-05-12T00:15:28.092Z,3.95
2019-05-12T00:17:02.825Z,3.75
2019-05-12T00:18:37.881Z,3.70
2019-05-12T00:20:12.978Z,3.67
2019-05-12T00:21:48.290Z,3.35
2019-05-12T00:23:27.734Z,3.40
2019-05-12T00:24:59.290Z,3.70
2019-05-12T00:26:34.115Z,3.87
2019-05-12T00:28:08.753Z,3.80
2019-05-12T00:29:43.392Z,3.10
2019-05-12T00:31:18.854Z,3.45
2019-05-12T00:32:53.751Z,2.80
2019-05-12T00:34:28.909Z,2.92
2019-05-12T00:36:03.672Z,2.40
2019-05-12T00:37:38.337Z,2.77
2019-05-12T00:39:13.061Z,2.72
2019-05-12T00:40:48.038Z,2.83
2019-05-12T00:42:22.650Z,2.30
2019-05-12T00:43:58.230Z,2.40
2019-05-12T00:45:33.281Z,2.60
2019-05-12T00:47:08.162Z,2.47
2019-05-12T00:48:42.899Z,2.22
2019-05-12T00:50:18.446Z,2.42
2019-05-12T00:51:53.172Z,2.40
2019-05-12T00:53:37.151Z,2.50
2019-05-12T00:55:04.329Z,2.42
2019-05-12T00:56:39.181Z,2.30
2019-05-12T00:58:14.039Z,2.30
2019-05-12T00:59:48.764Z,2.58
2019-05-12T01:01:23.314Z,2.67
2019-05-12T01:02:58.456Z,2.25
2019-05-12T01:04:33.202Z,1.92
2019-05-12T01:06:08.397Z,2.17
2019-05-12T01:07:43.422Z,2.35
2019-05-12T01:09:18.070Z,2.40
2019-05-12T01:10:52.638Z,2.75
2019-05-12T01:12:28.612Z,2.42
2019-05-12T01:14:03.662Z,2.75
2019-05-12T01:15:38.203Z,3.00
2019-05-12T01:17:17.737Z,3.22
2019-05-12T01:18:52.198Z,3.67
2019-05-12T01:20:28.261Z,4.08
2019-05-12T01:22:03.122Z,3.15
2019-05-12T01:23:53.454Z,3.30
2019-05-12T01:25:13.917Z,3.52
2019-05-12T01:26:48.470Z,4.00
2019-05-12T01:28:22.858Z,3.02
2019-05-12T01:29:58.094Z,3.60
2019-05-12T01:31:37.792Z,3.83
2019-05-12T01:33:12.768Z,3.35
2019-05-12T01:34:48.662Z,3.20
2019-05-12T01:36:23.451Z,3.25
2019-05-12T01:38:01.055Z,3.35
2019-05-12T01:39:34.459Z,3.47
2019-05-12T01:41:09.495Z,3.47
2019-05-12T01:42:44.228Z,3.52
2019-05-12T01:44:18.670Z,3.58
2019-05-12T01:45:53.219Z,3.45
2019-05-12T01:47:29.111Z,3.33
2019-05-12T01:49:04.067Z,3.02
2019-05-12T01:50:39.180Z,3.40
2019-05-12T01:52:14.375Z,3.80
2019-05-12T01:53:49.087Z,3.58
2019-05-12T01:55:23.742Z,3.92
2019-05-12T01:56:58.643Z,3.62
2019-05-12T01:58:33.362Z,3.50
2019-05-12T02:00:09.722Z,3.30
2019-05-12T02:01:44.543Z,3.83
2019-05-12T02:03:18.901Z,4.00
2019-05-12T02:05:05.208Z,3.42
2019-05-12T02:06:39.579Z,4.17
2019-05-12T02:08:19.399Z,3.25
2019-05-12T02:09:54.115Z,3.75
2019-05-12T02:11:34.773Z,3.60
2019-05-12T02:13:09.158Z,3.12
2019-05-12T02:14:43.774Z,3.72
2019-05-12T02:16:18.800Z,3.55
2019-05-12T02:17:53.685Z,4.78
2019-05-12T02:19:28.308Z,4.00
2019-05-12T02:21:02.983Z,3.75
2019-05-12T02:22:38.793Z,4.12
2019-05-12T02:24:24.306Z,3.70
2019-05-12T02:25:49.799Z,3.58
2019-05-12T02:27:24.446Z,3.40
2019-05-12T02:28:59.274Z,4.22
2019-05-12T02:30:33.883Z,4.47
2019-05-12T02:32:08.267Z,3.85
2019-05-12T02:33:44.603Z,3.62
2019-05-12T02:35:19.132Z,4.78
2019-05-12T02:36:55.564Z,4.10
2019-05-12T02:38:30.176Z,4.40
2019-05-12T02:40:06.415Z,4.08
2019-05-12T02:41:40.847Z,4.60
2019-05-12T02:43:15.914Z,4.53
2019-05-12T02:44:50.572Z,4.40
2019-05-12T02:46:25.754Z,4.25
2019-05-12T02:48:00.255Z,4.12
2019-05-12T02:49:35.138Z,4.17
2019-05-12T02:51:10.226Z,4.17
2019-05-12T02:52:45.040Z,4.67
2019-05-12T02:54:20.774Z,4.42
2019-05-12T02:55:57.182Z,4.28
2019-05-12T02:57:34.301Z,4.17
2019-05-12T02:59:10.042Z,4.25
2019-05-12T03:00:45.758Z,4.30
2019-05-12T03:02:24.496Z,4.15
2019-05-12T03:04:00.027Z,4.28
2019-05-12T03:05:37.307Z,4.03
2019-05-12T03:07:15.314Z,4.22
2019-05-12T03:08:50.391Z,4.33
2019-05-12T03:10:25.351Z,4.17
2019-05-12T03:12:01.568Z,4.45
2019-05-12T03:13:35.955Z,4.35
2019-05-12T03:15:15.144Z,4.15
2019-05-12T03:16:49.947Z,4.87
2019-05-12T03:18:25.495Z,4.40
2019-05-12T03:20:00.039Z,4.83
2019-05-12T03:21:35.813Z,4.83
2019-05-12T03:23:10.807Z,4.70
2019-05-12T03:24:45.706Z,5.37
2019-05-12T03:26:20.072Z,5.58
2019-05-12T03:27:54.702Z,5.10
2019-05-12T03:29:29.087Z,5.30
2019-05-12T03:31:07.660Z,5.25
2019-05-12T03:32:40.113Z,5.70
2019-05-12T03:34:19.881Z,5.40
2019-05-12T03:35:55.035Z,5.47
2019-05-12T03:37:31.155Z,5.45
2019-05-12T03:39:04.374Z,5.40
2019-05-12T03:40:39.492Z,5.17
2019-05-12T03:42:14.574Z,5.75
2019-05-12T03:43:49.311Z,5.00
2019-05-12T03:45:25.111Z,5.37
2019-05-12T03:46:59.930Z,5.12
2019-05-12T03:48:35.088Z,4.97
2019-05-12T03:50:09.999Z,5.20
2019-05-12T03:51:45.694Z,4.95
2019-05-12T03:53:20.470Z,4.87
2019-05-12T03:54:56.090Z,5.30
2019-05-12T03:56:34.159Z,5.17
2019-05-12T03:58:06.954Z,4.97
2019-05-12T03:59:44.795Z,5.50
2019-05-12T04:01:17.875Z,4.83
2019-05-12T04:02:55.401Z,5.08
2019-05-12T04:04:28.600Z,4.62
2019-05-12T04:06:04.763Z,4.97
2019-05-12T04:07:39.419Z,4.95
2019-05-12T04:09:15.379Z,4.47
2019-05-12T04:10:50.350Z,4.80
2019-05-12T04:12:25.582Z,4.33
2019-05-12T04:14:00.153Z,4.70
2019-05-12T04:15:35.451Z,4.90
2019-05-12T04:17:29.623Z,5.37
2019-05-12T04:19:05.315Z,4.95
2019-05-12T04:20:40.292Z,4.65
2019-05-12T04:22:15.536Z,5.03
2019-05-12T04:23:49.966Z,5.42
2019-05-12T04:25:25.104Z,4.25
2019-05-12T04:26:59.992Z,4.97
2019-05-12T04:28:35.249Z,4.45
2019-05-12T04:30:10.670Z,4.12
2019-05-12T04:31:45.240Z,5.20
2019-05-12T04:33:20.131Z,4.47
2019-05-12T04:34:55.216Z,4.25
2019-05-12T04:36:29.758Z,3.90
2019-05-12T04:38:05.036Z,4.50
2019-05-12T04:39:40.091Z,4.03
2019-05-12T04:41:14.840Z,4.50
2019-05-12T04:42:49.650Z,4.33
2019-05-12T04:44:25.062Z,4.05
2019-05-12T04:46:00.079Z,4.42
2019-05-12T04:47:35.189Z,5.12
2019-05-12T04:49:09.687Z,4.70
2019-05-12T04:50:45.221Z,5.45
2019-05-12T04:52:19.870Z,4.80
2019-05-12T04:53:55.060Z,4.92
2019-05-12T04:55:29.520Z,4.67
2019-05-12T04:57:04.563Z,4.42
2019-05-12T04:58:39.177Z,4.22
2019-05-12T05:00:15.772Z,4.25
2019-05-12T05:01:50.546Z,3.83
2019-05-12T05:03:25.394Z,3.80
2019-05-12T05:05:00.238Z,3.70
2019-05-12T05:06:35.173Z,3.90
2019-05-12T05:08:09.789Z,3.45
2019-05-12T05:09:44.564Z,3.70
2019-05-12T05:11:19.191Z,3.50
2019-05-12T05:12:54.406Z,3.60
2019-05-12T05:14:29.364Z,3.45
2019-05-12T05:16:05.452Z,3.67
2019-05-12T05:17:40.711Z,3.67
2019-05-12T05:19:15.506Z,3.80
2019-05-12T05:20:50.656Z,4.03
2019-05-12T05:22:25.678Z,4.30
2019-05-12T05:24:00.298Z,3.62
2019-05-12T05:25:35.714Z,3.67
2019-05-12T05:27:10.462Z,3.75
2019-05-12T05:28:45.198Z,3.37
2019-05-12T05:30:20.145Z,3.37
2019-05-12T05:31:54.873Z,3.00
2019-05-12T05:33:29.429Z,3.77
2019-05-12T05:35:07.508Z,3.25
2019-05-12T05:36:43.204Z,3.47
2019-05-12T05:38:20.686Z,3.37
2019-05-12T05:39:54.030Z,3.27
2019-05-12T05:41:29.163Z,3.42
2019-05-12T05:43:12.616Z,4.67
2019-05-12T05:44:40.556Z,3.08
2019-05-12T05:46:15.225Z,2.83
2019-05-12T05:47:49.959Z,3.12
2019-05-12T05:49:24.821Z,2.35
2019-05-12T05:50:59.983Z,2.62
2019-05-12T05:52:38.641Z,2.67
2019-05-12T05:54:13.745Z,2.40
2019-05-12T05:55:50.384Z,3.30
2019-05-12T05:57:28.401Z,3.42
2019-05-12T05:59:04.274Z,3.10
2019-05-12T06:00:39.450Z,2.80
2019-05-12T06:02:14.295Z,2.50
2019-05-12T06:03:49.350Z,2.95
2019-05-12T06:05:26.365Z,2.52
2019-05-12T06:07:00.839Z,2.70
2019-05-12T06:08:35.407Z,2.58
2019-05-12T06:10:10.707Z,2.63
2019-05-12T06:11:45.393Z,2.40
2019-05-12T06:13:21.188Z,2.50
2019-05-12T06:14:59.882Z,2.35
2019-05-12T06:16:34.180Z,2.90
2019-05-12T06:18:09.250Z,2.17
2019-05-12T06:19:44.000Z,2.40
2019-05-12T06:21:18.642Z,2.20
2019-05-12T06:22:56.550Z,2.40
2019-05-12T06:24:30.000Z,2.20
2019-05-12T06:26:04.943Z,2.27
2019-05-12T06:27:39.605Z,2.52
2019-05-12T06:29:20.284Z,2.00
2019-05-12T06:30:50.638Z,2.10
2019-05-12T06:32:25.418Z,2.00
2019-05-12T06:34:00.010Z,2.27
2019-05-12T06:35:40.823Z,2.20
2019-05-12T06:37:12.324Z,2.35
2019-05-12T06:38:47.857Z,2.03
2019-05-12T06:40:24.343Z,2.23
2019-05-12T06:42:11.223Z,2.10
2019-05-12T06:43:38.842Z,2.35
2019-05-12T06:45:14.290Z,2.90
2019-05-12T06:46:53.474Z,2.40
2019-05-12T06:48:30.246Z,2.27
2019-05-12T06:50:03.947Z,2.30
2019-05-12T06:51:38.958Z,2.10
2019-05-12T06:53:14.067Z,2.07
2019-05-12T06:54:51.378Z,2.40
2019-05-12T06:56:26.037Z,2.20
2019-05-12T06:58:01.018Z,2.50
2019-05-12T06:59:35.861Z,2.63
2019-05-12T07:01:18.462Z,2.60
2019-05-12T07:02:52.354Z,3.00
2019-05-12T07:04:25.863Z,3.30
2019-05-12T07:06:03.947Z,3.07
2019-05-12T07:07:41.859Z,3.20
2019-05-12T07:09:23.391Z,3.00
2019-05-12T07:11:01.723Z,3.23
2019-05-12T07:12:33.596Z,2.83
2019-05-12T07:14:13.111Z,3.27
2019-05-12T07:15:43.897Z,3.47
2019-05-12T07:17:28.226Z,3.30
2019-05-12T07:19:07.606Z,4.13
2019-05-12T07:20:40.940Z,4.10
2019-05-12T07:22:21.902Z,4.17
2019-05-12T07:23:54.880Z,4.10
2019-05-12T07:25:31.517Z,4.23
2019-05-12T07:27:09.272Z,3.63
2019-05-12T07:28:45.212Z,3.73
2019-05-12T07:30:27.863Z,4.13
2019-05-12T07:32:06.879Z,3.63
2019-05-12T07:33:41.814Z,3.73
2019-05-12T07:35:16.783Z,3.10
2019-05-12T07:36:54.453Z,2.77
2019-05-12T07:38:31.517Z,3.87
2019-05-12T07:40:06.283Z,3.87
2019-05-12T07:41:50.755Z,3.63
2019-05-12T07:43:20.927Z,3.53
2019-05-12T07:44:58.092Z,3.87
2019-05-12T07:46:34.255Z,3.50
2019-05-12T07:48:10.478Z,3.53
2019-05-12T07:49:45.169Z,4.37
2019-05-12T07:51:20.648Z,3.60
2019-05-12T07:52:55.998Z,4.07
2019-05-12T07:54:37.761Z,4.40
2019-05-12T07:56:08.166Z,3.63
2019-05-12T07:57:52.917Z,4.23
2019-05-12T07:59:19.630Z,3.23
2019-05-12T08:01:02.275Z,3.90
2019-05-12T08:02:32.029Z,3.90
2019-05-12T08:04:07.945Z,3.80
2019-05-12T08:05:43.902Z,3.87
2019-05-12T08:07:24.757Z,4.30
2019-05-12T08:08:58.956Z,3.53
2019-05-12T08:10:34.254Z,3.80
2019-05-12T08:12:09.832Z,4.00
2019-05-12T08:13:45.144Z,3.70
2019-05-12T08:15:19.984Z,3.63
2019-05-12T08:16:54.723Z,3.50
2019-05-12T08:18:30.503Z,4.03
2019-05-12T08:20:06.231Z,3.77
2019-05-12T08:21:43.948Z,3.70
2019-05-12T08:23:17.486Z,4.00
2019-05-12T08:24:53.798Z,3.60
2019-05-12T08:26:28.514Z,3.83
2019-05-12T08:28:12.305Z,4.00
2019-05-12T08:29:39.864Z,3.63
2019-05-12T08:31:14.755Z,3.50
2019-05-12T08:32:56.379Z,3.80
2019-05-12T08:34:25.897Z,3.70
2019-05-12T08:36:05.487Z,3.53
2019-05-12T08:37:37.998Z,4.00
2019-05-12T08:39:21.059Z,3.60
2019-05-12T08:40:51.057Z,3.33
2019-05-12T08:42:25.539Z,3.10
2019-05-12T08:44:00.151Z,3.40
2019-05-12T08:45:37.521Z,3.27
2019-05-12T08:47:12.790Z,3.30
2019-05-12T08:48:51.508Z,3.20
2019-05-12T08:50:31.647Z,3.13
2019-05-12T08:52:03.854Z,3.60
2019-05-12T08:53:38.721Z,3.47
2019-05-12T08:55:35.463Z,3.60
2019-05-12T08:57:09.086Z,2.80
2019-05-12T08:58:50.940Z,2.80
2019-05-12T09:00:45.452Z,3.30
2019-05-12T09:02:15.721Z,3.23
2019-05-12T09:03:50.712Z,3.27
2019-05-12T09:05:33.604Z,2.93
2019-05-12T09:07:04.377Z,3.00
2019-05-12T09:08:44.866Z,3.07
2019-05-12T09:10:17.368Z,3.10
2019-05-12T09:11:54.258Z,3.33
2019-05-12T09:13:29.560Z,3.60
2019-05-12T09:15:08.059Z,3.17
2019-05-12T09:16:41.408Z,3.07
2019-05-12T09:18:19.036Z,3.20
2019-05-12T09:20:02.569Z,3.20
2019-05-12T09:21:32.290Z,3.37
2019-05-12T09:23:07.968Z,3.00
2019-05-12T09:24:44.106Z,3.40
2019-05-12T09:26:23.947Z,2.87
2019-05-12T09:27:55.655Z,2.77
2019-05-12T09:29:30.800Z,3.13
2019-05-12T09:31:05.967Z,2.80
2019-05-12T09:33:00.371Z,2.70
2019-05-12T09:34:35.147Z,2.80
2019-05-12T09:36:11.447Z,3.17
2019-05-12T09:37:46.673Z,2.60
2019-05-12T09:39:23.499Z,2.47
2019-05-12T09:41:01.158Z,2.80
2019-05-12T09:42:36.181Z,2.73
2019-05-12T09:44:13.379Z,2.40
2019-05-12T09:45:52.409Z,2.20
2019-05-12T09:47:27.733Z,2.40
2019-05-12T09:49:04.119Z,2.27
2019-05-12T09:50:40.048Z,2.67
2019-05-12T09:52:22.244Z,2.57
2019-05-12T09:53:54.688Z,2.33
2019-05-12T09:55:27.670Z,2.17
2019-05-12T09:57:04.277Z,2.60
2019-05-12T09:58:39.321Z,2.20
2019-05-12T10:00:14.559Z,1.63
2019-05-12T10:01:49.387Z,2.33
2019-05-12T10:03:24.312Z,2.17
2019-05-12T10:05:00.920Z,2.00
2019-05-12T10:06:35.330Z,2.30
2019-05-12T10:08:10.268Z,2.30
2019-05-12T10:09:49.151Z,2.30
2019-05-12T10:11:23.676Z,2.50
2019-05-12T10:12:58.509Z,2.10
2019-05-12T10:14:33.662Z,2.23
2019-05-12T10:16:09.034Z,2.50
2019-05-12T10:17:43.602Z,2.10
2019-05-12T10:19:18.414Z,2.43
2019-05-12T10:20:53.480Z,1.90
2019-05-12T10:22:40.328Z,2.07
2019-05-12T10:24:14.679Z,2.20
2019-05-12T10:25:49.303Z,2.10
2019-05-12T10:27:30.153Z,2.17
2019-05-12T10:29:14.132Z,2.30
2019-05-12T10:30:36.783Z,2.30
2019-05-12T10:32:13.328Z,1.83
2019-05-12T10:33:49.113Z,2.50
2019-05-12T10:35:26.831Z,2.20
2019-05-12T10:37:04.123Z,2.20
2019-05-12T10:38:39.236Z,2.33
2019-05-12T10:40:14.656Z,1.83
2019-05-12T10:41:49.593Z,1.90
2019-05-12T10:43:24.703Z,2.27
2019-05-12T10:44:59.291Z,2.27
2019-05-12T10:46:34.287Z,1.80
2019-05-12T10:48:08.874Z,1.90
2019-05-12T10:49:44.122Z,2.07
2019-05-12T10:51:18.858Z,1.80
2019-05-12T10:52:53.751Z,1.60
2019-05-12T10:54:28.346Z,1.80
2019-05-12T10:56:03.083Z,1.80
2019-05-12T10:57:37.706Z,1.77
2019-05-12T10:59:13.342Z,1.83
2019-05-12T11:00:48.324Z,1.70
2019-05-12T11:02:26.471Z,1.60
2019-05-12T11:03:59.713Z,1.50
2019-05-12T11:05:34.638Z,1.83
2019-05-12T11:07:09.182Z,1.67
2019-05-12T11:08:49.590Z,1.73
2019-05-12T11:10:20.515Z,2.07
2019-05-12T11:11:55.387Z,1.90
2019-05-12T11:13:30.580Z,1.80
2019-05-12T11:15:08.181Z,1.57
2019-05-12T11:16:44.614Z,1.57
2019-05-12T11:18:26.000Z,1.40
2019-05-12T11:19:57.630Z,1.60
2019-05-12T11:21:33.713Z,1.27
2019-05-12T11:23:08.323Z,1.60
2019-05-12T11:24:44.370Z,1.70
2019-05-12T11:26:20.177Z,1.23
2019-05-12T11:27:55.322Z,1.57
2019-05-12T11:29:45.299Z,1.60
2019-05-12T11:31:07.387Z,1.90
2019-05-12T11:32:44.162Z,1.60
2019-05-12T11:34:19.440Z,1.90
2019-05-12T11:35:54.869Z,1.73
2019-05-12T11:37:30.338Z,1.80
2019-05-12T11:39:07.092Z,1.40
2019-05-12T11:40:43.737Z,1.73
2019-05-12T11:42:19.347Z,1.33
2019-05-12T11:43:54.494Z,1.93
2019-05-12T11:45:29.969Z,1.80
2019-05-12T11:47:05.518Z,1.67
2019-05-12T11:48:46.356Z,2.00
2019-05-12T11:50:18.189Z,1.70
2019-05-12T11:51:54.461Z,1.77
2019-05-12T11:53:32.202Z,1.90
2019-05-12T11:55:07.663Z,1.60
2019-05-12T11:56:46.535Z,1.80
2019-05-12T11:58:20.229Z,1.97
2019-05-12T12:00:01.997Z,1.70
2019-05-12T12:01:34.436Z,2.03
2019-05-12T12:03:18.193Z,1.53
2019-05-12T12:04:47.685Z,1.50
2019-05-12T12:06:24.087Z,1.60
2019-05-12T12:07:58.814Z,1.80
2019-05-12T12:09:33.559Z,1.73
2019-05-12T12:11:10.629Z,1.70
2019-05-12T12:12:48.964Z,1.67
2019-05-12T12:14:23.676Z,1.60
2019-05-12T12:16:00.382Z,1.63
2019-05-12T12:17:35.770Z,1.83
2019-05-12T12:19:10.691Z,1.50
2019-05-12T12:20:45.327Z,1.50
2019-05-12T12:22:25.209Z,1.60
2019-05-12T12:23:56.473Z,1.40
2019-05-12T12:25:33.866Z,1.70
2019-05-12T12:27:08.120Z,1.50
2019-05-12T12:28:43.528Z,1.30
2019-05-12T12:30:19.877Z,1.40
2019-05-12T12:31:55.647Z,1.50
2019-05-12T12:33:30.944Z,1.20
2019-05-12T12:35:10.998Z,1.53
2019-05-12T12:36:43.602Z,1.30
2019-05-12T12:38:18.462Z,1.30
2019-05-12T12:39:53.571Z,1.70
2019-05-12T12:41:28.541Z,1.60
2019-05-12T12:43:03.974Z,1.10
2019-05-12T12:44:39.230Z,1.50
2019-05-12T12:46:24.427Z,1.30
2019-05-12T12:47:59.300Z,2.00
2019-05-12T12:49:34.064Z,1.47
2019-05-12T12:51:09.217Z,1.10
2019-05-12T12:52:48.691Z,1.40
2019-05-12T12:54:21.490Z,1.60
2019-05-12T12:55:58.512Z,1.50
2019-05-12T12:57:33.568Z,1.67
2019-05-12T12:59:11.663Z,1.60
2019-05-12T13:00:48.111Z,1.40
2019-05-12T13:02:24.714Z,1.30
2019-05-12T13:04:04.770Z,1.40
2019-05-12T13:05:36.235Z,1.37
2019-05-12T13:07:10.972Z,1.50
2019-05-12T13:08:45.895Z,1.40
2019-05-12T13:10:21.782Z,1.50
2019-05-12T13:11:56.983Z,1.20
2019-05-12T13:13:32.553Z,1.30
2019-05-12T13:15:08.195Z,1.20
2019-05-12T13:16:43.886Z,1.60
2019-05-12T13:18:24.713Z,1.40
2019-05-12T13:19:58.699Z,1.50
2019-05-12T13:21:33.550Z,1.27
2019-05-12T13:23:08.901Z,1.30
2019-05-12T13:24:44.073Z,1.40
2019-05-12T13:26:19.483Z,1.60
2019-05-12T13:27:54.630Z,1.50
2019-05-12T13:29:38.064Z,1.50
2019-05-12T13:31:12.779Z,1.60
2019-05-12T13:32:44.129Z,1.53
2019-05-12T13:34:19.479Z,1.63
2019-05-12T13:35:55.745Z,1.10
2019-05-12T13:37:33.707Z,1.27
2019-05-12T13:39:11.318Z,1.47
2019-05-12T13:40:46.157Z,1.20
2019-05-12T13:42:21.327Z,1.60
2019-05-12T13:43:59.985Z,1.20
2019-05-12T13:45:33.717Z,1.20
2019-05-12T13:47:08.882Z,1.20
2019-05-12T13:48:43.647Z,1.27
2019-05-12T13:50:21.405Z,1.07
2019-05-12T13:51:55.233Z,1.20
2019-05-12T13:53:30.416Z,1.40
2019-05-12T13:55:07.764Z,1.20
2019-05-12T13:56:44.341Z,1.60
2019-05-12T13:58:18.600Z,1.40
2019-05-12T14:00:04.171Z,1.30
2019-05-12T14:01:32.017Z,0.97
2019-05-12T14:03:09.538Z,1.20
2019-05-12T14:04:44.353Z,1.37
2019-05-12T14:06:23.207Z,1.10
2019-05-12T14:07:57.401Z,1.20
2019-05-12T14:09:34.322Z,1.20
2019-05-12T14:11:09.629Z,1.27
2019-05-12T14:12:44.793Z,1.10
2019-05-12T14:14:20.182Z,1.00
2019-05-12T14:15:55.359Z,1.03
2019-05-12T14:17:30.952Z,1.00
2019-05-12T14:19:07.463Z,1.10
2019-05-12T14:20:44.867Z,1.00
2019-05-12T14:22:21.515Z,1.33
2019-05-12T14:23:56.505Z,1.00
2019-05-12T14:25:33.002Z,1.30
2019-05-12T14:27:08.801Z,1.27
2019-05-12T14:28:45.690Z,1.07
2019-05-12T14:30:24.389Z,1.00
2019-05-12T14:32:02.433Z,1.20
2019-05-12T14:33:39.252Z,1.20
2019-05-12T14:35:14.395Z,1.10
2019-05-12T14:36:49.801Z,1.20
2019-05-12T14:38:29.633Z,1.20
2019-05-12T14:40:03.968Z,1.00
2019-05-12T14:41:44.566Z,1.40
2019-05-12T14:43:21.351Z,1.00
2019-05-12T14:44:55.743Z,1.13
2019-05-12T14:46:33.428Z,1.00
2019-05-12T14:48:09.426Z,1.10
2019-05-12T14:49:45.061Z,1.40
2019-05-12T14:51:20.689Z,1.20
2019-05-12T14:52:59.601Z,1.30
2019-05-12T14:54:34.283Z,1.10
2019-05-12T14:56:09.595Z,1.10
2019-05-12T14:57:45.006Z,1.00
2019-05-12T14:59:20.421Z,1.30
2019-05-12T15:00:57.931Z,1.20
2019-05-12T15:02:33.167Z,1.00
2019-05-12T15:04:08.577Z,1.10
2019-05-12T15:05:47.377Z,1.03
2019-05-12T15:07:20.126Z,1.13
2019-05-12T15:08:54.853Z,1.00
2019-05-12T15:10:29.438Z,1.00
2019-05-12T15:12:04.554Z,1.10
2019-05-12T15:13:39.098Z,1.07
2019-05-12T15:15:20.242Z,0.90
2019-05-12T15:16:51.175Z,1.50
2019-05-12T15:18:25.903Z,1.13
2019-05-12T15:20:05.743Z,1.10
2019-05-12T15:21:36.901Z,1.30
2019-05-12T15:23:14.131Z,1.10
2019-05-12T15:24:49.214Z,1.10
2019-05-12T15:26:25.110Z,1.33
2019-05-12T15:28:00.136Z,1.30
2019-05-12T15:29:34.782Z,1.30
2019-05-12T15:31:09.879Z,1.30
2019-05-12T15:32:44.810Z,1.03
2019-05-12T15:34:19.538Z,1.30
2019-05-12T15:35:54.849Z,1.00
2019-05-12T15:37:34.983Z,1.13
2019-05-12T15:39:07.689Z,1.07
2019-05-12T15:40:43.378Z,1.43
2019-05-12T15:42:18.262Z,1.00
2019-05-12T15:43:55.718Z,1.07
2019-05-12T15:45:29.884Z,1.17
2019-05-12T15:47:04.730Z,1.17
2019-05-12T15:48:39.382Z,1.40
2019-05-12T15:50:29.459Z,1.40
2019-05-12T15:52:04.597Z,1.43
2019-05-12T15:53:39.151Z,1.00
2019-05-12T15:55:17.828Z,1.63
2019-05-12T15:56:50.823Z,1.17
2019-05-12T15:58:25.651Z,1.20
2019-05-12T16:00:00.552Z,1.10
2019-05-12T16:01:35.287Z,1.30
2019-05-12T16:03:09.931Z,1.17
2019-05-12T16:04:48.422Z,1.20
2019-05-12T16:06:21.528Z,1.37
2019-05-12T16:07:56.523Z,1.20
2019-05-12T16:09:31.100Z,1.70
2019-05-12T16:11:05.871Z,1.37
2019-05-12T16:12:40.716Z,1.20
2019-05-12T16:14:15.998Z,1.30
2019-05-12T16:15:57.599Z,1.13
2019-05-12T16:17:27.597Z,1.63
2019-05-12T16:19:04.453Z,1.30
2019-05-12T16:20:39.360Z,1.50
2019-05-12T16:22:14.137Z,1.40
2019-05-12T16:23:48.988Z,1.40
2019-05-12T16:25:29.115Z,1.40
2019-05-12T16:27:00.586Z,1.40
2019-05-12T16:28:35.387Z,1.57
2019-05-12T16:30:10.470Z,1.40
2019-05-12T16:31:49.676Z,1.43
2019-05-12T16:33:22.116Z,1.10
2019-05-12T16:34:57.015Z,1.17
2019-05-12T16:36:33.709Z,1.53
2019-05-12T16:38:17.336Z,1.37
2019-05-12T16:39:47.390Z,1.60
2019-05-12T16:41:27.991Z,1.70
2019-05-12T16:42:59.795Z,1.20
2019-05-12T16:44:34.892Z,1.20
2019-05-12T16:46:10.096Z,1.50
2019-05-12T16:47:45.089Z,1.47
2019-05-12T16:49:25.049Z,1.57
2019-05-12T16:50:56.125Z,1.50
2019-05-12T16:52:34.677Z,1.50
2019-05-12T16:54:07.228Z,1.33
2019-05-12T16:55:46.467Z,1.73
2019-05-12T16:57:18.597Z,1.30
2019-05-12T16:58:54.242Z,1.40
2019-05-12T17:00:30.976Z,1.40
2019-05-12T17:02:09.645Z,1.20
2019-05-12T17:03:42.034Z,1.27
2019-05-12T17:05:20.459Z,1.13
2019-05-12T17:06:53.459Z,1.40
2019-05-12T17:08:28.552Z,1.40
2019-05-12T17:10:11.499Z,1.67
2019-05-12T17:11:47.271Z,1.50
2019-05-12T17:13:16.220Z,1.33
2019-05-12T17:14:53.158Z,1.47
2019-05-12T17:16:27.665Z,1.60
2019-05-12T17:18:04.351Z,1.57
2019-05-12T17:19:39.172Z,1.73
2019-05-12T17:21:14.444Z,2.23
2019-05-12T17:22:54.622Z,1.80
2019-05-12T17:24:25.891Z,2.20
2019-05-12T17:26:00.678Z,1.87
2019-05-12T17:27:35.487Z,1.80
2019-05-12T17:29:10.534Z,1.30
2019-05-12T17:30:45.338Z,1.10
2019-05-12T17:32:19.915Z,1.87
2019-05-12T17:33:54.652Z,1.60
2019-05-12T17:35:31.720Z,1.60
2019-05-12T17:37:06.475Z,1.53
2019-05-12T17:38:41.018Z,1.27
2019-05-12T17:40:20.100Z,1.50
2019-05-12T17:41:52.438Z,1.00
2019-05-12T17:43:27.167Z,1.60
2019-05-12T17:45:03.773Z,1.37
2019-05-12T17:46:39.716Z,1.70
2019-05-12T17:48:14.424Z,1.50
2019-05-12T17:49:49.205Z,1.57
2019-05-12T17:51:26.701Z,1.63
2019-05-12T17:53:00.687Z,1.73
2019-05-12T17:54:35.642Z,2.00
2019-05-12T17:56:10.387Z,1.33
2019-05-12T17:57:44.957Z,1.60
2019-05-12T17:59:24.418Z,1.70
2019-05-12T18:00:56.322Z,1.40
2019-05-12T18:02:31.070Z,1.47
2019-05-12T18:04:05.698Z,1.73
2019-05-12T18:05:42.358Z,1.50
2019-05-12T18:07:19.303Z,1.40
2019-05-12T18:08:53.763Z,1.67
2019-05-12T18:10:32.536Z,1.40
2019-05-12T18:12:05.046Z,1.57
2019-05-12T18:13:40.165Z,1.20
2019-05-12T18:15:15.658Z,1.70
2019-05-12T18:16:53.969Z,1.30
2019-05-12T18:18:32.751Z,1.70
2019-05-12T18:20:04.175Z,1.83
2019-05-12T18:21:39.416Z,1.73
2019-05-12T18:23:14.042Z,1.80
2019-05-12T18:24:50.844Z,1.33
2019-05-12T18:26:25.341Z,1.70
2019-05-12T18:28:00.074Z,1.40
2019-05-12T18:29:35.147Z,1.40
2019-05-12T18:31:10.382Z,1.37
2019-05-12T18:32:45.167Z,1.40
2019-05-12T18:34:20.077Z,1.60
2019-05-12T18:35:54.890Z,1.43
2019-05-12T18:37:29.633Z,1.47
2019-05-12T18:39:11.537Z,1.40
2019-05-12T18:40:42.410Z,1.27
2019-05-12T18:42:16.956Z,1.47
2019-05-12T18:43:53.868Z,2.00
2019-05-12T18:45:28.206Z,2.00
2019-05-12T18:47:04.361Z,1.87
2019-05-12T18:48:39.411Z,1.70
2019-05-12T18:50:14.398Z,1.40
2019-05-12T18:51:55.252Z,1.60
2019-05-12T18:53:31.520Z,1.63
2019-05-12T18:55:02.209Z,1.50
2019-05-12T18:56:37.327Z,1.60
2019-05-12T18:58:32.355Z,1.50
2019-05-12T19:00:13.305Z,1.40
2019-05-12T19:01:48.342Z,1.40
2019-05-12T19:03:25.386Z,1.30
2019-05-12T19:05:00.018Z,1.70
2019-05-12T19:06:35.171Z,1.50
2019-05-12T19:08:10.268Z,1.70
2019-05-12T19:09:47.277Z,1.73
2019-05-12T19:11:25.466Z,1.37
2019-05-12T19:13:01.905Z,1.40
2019-05-12T19:14:36.878Z,1.23
2019-05-12T19:16:11.421Z,1.40
2019-05-12T19:17:46.310Z,1.80
2019-05-12T19:19:20.894Z,1.70
2019-05-12T19:20:55.639Z,1.40
2019-05-12T19:22:30.251Z,1.70
2019-05-12T19:24:08.635Z,1.40
2019-05-12T19:25:43.647Z,1.57
2019-05-12T19:27:20.740Z,1.57
2019-05-12T19:28:58.028Z,1.37
2019-05-12T19:30:34.485Z,1.57
2019-05-12T19:32:09.298Z,1.40
2019-05-12T19:33:56.594Z,1.70
2019-05-12T19:35:20.632Z,1.40
2019-05-12T19:36:55.442Z,1.40
2019-05-12T19:38:30.068Z,1.60
2019-05-12T19:40:11.864Z,1.17
2019-05-12T19:41:43.602Z,1.40
2019-05-12T19:43:18.670Z,1.40
2019-05-12T19:44:56.695Z,1.57
2019-05-12T19:46:30.165Z,1.43
2019-05-12T19:48:04.918Z,1.80
2019-05-12T19:49:47.980Z,1.70
2019-05-12T19:51:23.742Z,1.50
2019-05-12T19:52:53.556Z,1.50
2019-05-12T19:54:31.013Z,1.57
2019-05-12T19:56:04.917Z,1.50
2019-05-12T19:57:39.795Z,1.50
2019-05-12T19:59:14.772Z,1.67
2019-05-12T20:00:49.566Z,1.53
2019-05-12T20:02:24.299Z,1.33
2019-05-12T20:03:59.120Z,1.50
2019-05-12T20:05:34.401Z,1.57
2019-05-12T20:07:09.075Z,1.30
2019-05-12T20:08:44.081Z,1.77
2019-05-12T20:10:19.023Z,1.40
2019-05-12T20:11:53.874Z,1.60
2019-05-12T20:13:29.695Z,1.40
2019-05-12T20:15:05.891Z,1.50
2019-05-12T20:16:40.531Z,1.57
2019-05-12T20:18:15.271Z,1.57
2019-05-12T20:19:49.814Z,1.60
2019-05-12T20:21:26.068Z,1.40
2019-05-12T20:23:00.854Z,1.43
2019-05-12T20:24:35.951Z,1.60
2019-05-12T20:26:10.497Z,1.50
2019-05-12T20:27:45.554Z,1.40
2019-05-12T20:29:26.541Z,1.33
2019-05-12T20:31:00.678Z,1.50
2019-05-12T20:32:34.393Z,1.57
2019-05-12T20:34:10.991Z,1.33
2019-05-12T20:35:49.205Z,1.43
2019-05-12T20:37:22.280Z,1.30
2019-05-12T20:38:56.827Z,1.40
2019-05-12T20:40:32.137Z,1.10
2019-05-12T20:42:08.127Z,1.30
2019-05-12T20:43:44.296Z,1.30
2019-05-12T20:45:22.564Z,1.13
2019-05-12T20:47:00.874Z,1.10
2019-05-12T20:48:33.931Z,1.53
2019-05-12T20:50:09.251Z,1.10
2019-05-12T20:51:44.443Z,1.47
2019-05-12T20:53:24.879Z,1.40
2019-05-12T20:54:59.789Z,1.30
2019-05-12T20:56:34.335Z,1.50
2019-05-12T20:58:09.003Z,1.30
2019-05-12T20:59:44.525Z,1.10
2019-05-12T21:01:20.328Z,1.27
2019-05-12T21:02:55.851Z,1.20
2019-05-12T21:04:31.665Z,0.97
2019-05-12T21:06:06.885Z,1.30
2019-05-12T21:07:41.423Z,1.10
2019-05-12T21:09:16.184Z,1.00
2019-05-12T21:10:50.746Z,1.17
2019-05-12T21:12:25.505Z,0.90
2019-05-12T21:14:00.923Z,1.37
2019-05-12T21:15:42.364Z,0.93